sensor_id;sensor_type;location;lat;lon;timestamp;P1;durP1;ratioP1;P2;durP2;ratioP2
12707;SDS011;6418;50.824;4.718;2023-04-19T00:00:02;41.40;;;28.00;;
12707;SDS011;6418;50.824;4.718;2023-04-19T00:02:30;36.13;;;26.43;;
12707;SDS011;6418;50.824;4.718;2023-04-19T00:04:58;39.63;;;28.50;;
12707;SDS011;6418;50.824;4.718;2023-04-19T00:07:25;35.53;;;28.23;;
12707;SDS011;6418;50.824;4.718;2023-04-19T00:09:51;37.97;;;27.73;;
12707;SDS011;6418;50.824;4.718;2023-04-19T00:12:20;37.47;;;28.10;;
12707;SDS011;6418;50.824;4.718;2023-04-19T00:14:47;39.33;;;28.10;;
12707;SDS011;6418;50.824;4.718;2023-04-19T00:17:14;37.63;;;27.63;;
12707;SDS011;6418;50.824;4.718;2023-04-19T00:19:40;38.80;;;27.60;;
12707;SDS011;6418;50.824;4.718;2023-04-19T00:22:08;36.73;;;28.23;;
12707;SDS011;6418;50.824;4.718;2023-04-19T00:24:35;36.30;;;26.70;;
12707;SDS011;6418;50.824;4.718;2023-04-19T00:27:02;37.47;;;27.93;;
12707;SDS011;6418;50.824;4.718;2023-04-19T00:29:31;37.63;;;27.90;;
12707;SDS011;6418;50.824;4.718;2023-04-19T00:31:58;38.53;;;27.90;;
12707;SDS011;6418;50.824;4.718;2023-04-19T00:34:24;39.07;;;27.70;;
12707;SDS011;6418;50.824;4.718;2023-04-19T00:36:51;35.80;;;26.87;;
12707;SDS011;6418;50.824;4.718;2023-04-19T00:39:18;37.53;;;28.13;;
12707;SDS011;6418;50.824;4.718;2023-04-19T00:41:45;39.07;;;27.80;;
12707;SDS011;6418;50.824;4.718;2023-04-19T00:44:12;38.80;;;28.03;;
12707;SDS011;6418;50.824;4.718;2023-04-19T00:46:40;39.23;;;28.23;;
12707;SDS011;6418;50.824;4.718;2023-04-19T00:49:08;38.33;;;27.87;;
12707;SDS011;6418;50.824;4.718;2023-04-19T00:51:35;36.77;;;27.17;;
12707;SDS011;6418;50.824;4.718;2023-04-19T00:54:02;39.10;;;28.03;;
12707;SDS011;6418;50.824;4.718;2023-04-19T00:56:30;39.60;;;27.53;;
12707;SDS011;6418;50.824;4.718;2023-04-19T00:58:59;38.53;;;28.20;;
12707;SDS011;6418;50.824;4.718;2023-04-19T01:01:27;40.37;;;29.47;;
12707;SDS011;6418;50.824;4.718;2023-04-19T01:03:55;38.37;;;27.93;;
12707;SDS011;6418;50.824;4.718;2023-04-19T01:06:23;36.93;;;28.53;;
12707;SDS011;6418;50.824;4.718;2023-04-19T01:08:51;37.97;;;28.63;;
12707;SDS011;6418;50.824;4.718;2023-04-19T01:11:18;41.27;;;28.83;;
12707;SDS011;6418;50.824;4.718;2023-04-19T01:13:45;40.10;;;29.33;;
12707;SDS011;6418;50.824;4.718;2023-04-19T01:16:12;40.40;;;28.60;;
12707;SDS011;6418;50.824;4.718;2023-04-19T01:18:39;39.90;;;29.13;;
12707;SDS011;6418;50.824;4.718;2023-04-19T01:21:08;39.07;;;28.43;;
12707;SDS011;6418;50.824;4.718;2023-04-19T01:23:36;40.73;;;30.00;;
12707;SDS011;6418;50.824;4.718;2023-04-19T01:26:04;38.83;;;28.43;;
12707;SDS011;6418;50.824;4.718;2023-04-19T01:28:31;38.87;;;28.33;;
12707;SDS011;6418;50.824;4.718;2023-04-19T01:30:58;38.37;;;27.40;;
12707;SDS011;6418;50.824;4.718;2023-04-19T01:33:25;36.07;;;26.93;;
12707;SDS011;6418;50.824;4.718;2023-04-19T01:35:52;39.57;;;28.60;;
12707;SDS011;6418;50.824;4.718;2023-04-19T01:38:19;38.80;;;28.17;;
12707;SDS011;6418;50.824;4.718;2023-04-19T01:40:47;36.03;;;26.43;;
12707;SDS011;6418;50.824;4.718;2023-04-19T01:43:15;37.50;;;27.13;;
12707;SDS011;6418;50.824;4.718;2023-04-19T01:45:42;39.37;;;28.13;;
12707;SDS011;6418;50.824;4.718;2023-04-19T01:48:09;36.03;;;26.70;;
12707;SDS011;6418;50.824;4.718;2023-04-19T01:50:36;36.80;;;27.13;;
12707;SDS011;6418;50.824;4.718;2023-04-19T01:53:03;37.77;;;27.10;;
12707;SDS011;6418;50.824;4.718;2023-04-19T01:55:30;34.27;;;25.93;;
12707;SDS011;6418;50.824;4.718;2023-04-19T01:57:58;34.70;;;25.27;;
12707;SDS011;6418;50.824;4.718;2023-04-19T02:00:25;34.93;;;25.67;;
12707;SDS011;6418;50.824;4.718;2023-04-19T02:02:52;34.93;;;25.87;;
12707;SDS011;6418;50.824;4.718;2023-04-19T02:05:19;34.50;;;26.37;;
12707;SDS011;6418;50.824;4.718;2023-04-19T02:07:46;33.07;;;25.00;;
12707;SDS011;6418;50.824;4.718;2023-04-19T02:10:13;34.57;;;25.07;;
12707;SDS011;6418;50.824;4.718;2023-04-19T02:12:40;33.13;;;24.60;;
12707;SDS011;6418;50.824;4.718;2023-04-19T02:15:09;34.20;;;25.10;;
12707;SDS011;6418;50.824;4.718;2023-04-19T02:17:36;33.13;;;25.40;;
12707;SDS011;6418;50.824;4.718;2023-04-19T02:20:05;34.13;;;25.67;;
12707;SDS011;6418;50.824;4.718;2023-04-19T02:22:33;32.73;;;24.53;;
12707;SDS011;6418;50.824;4.718;2023-04-19T02:25:00;33.40;;;24.37;;
12707;SDS011;6418;50.824;4.718;2023-04-19T02:27:27;33.97;;;25.30;;
12707;SDS011;6418;50.824;4.718;2023-04-19T02:29:54;33.23;;;24.50;;
12707;SDS011;6418;50.824;4.718;2023-04-19T02:32:23;32.40;;;24.47;;
12707;SDS011;6418;50.824;4.718;2023-04-19T02:34:50;33.70;;;24.80;;
12707;SDS011;6418;50.824;4.718;2023-04-19T02:37:17;31.20;;;23.87;;
12707;SDS011;6418;50.824;4.718;2023-04-19T02:39:43;31.77;;;23.40;;
12707;SDS011;6418;50.824;4.718;2023-04-19T02:42:11;33.40;;;25.03;;
12707;SDS011;6418;50.824;4.718;2023-04-19T02:44:37;32.40;;;24.00;;
12707;SDS011;6418;50.824;4.718;2023-04-19T02:47:04;31.93;;;24.13;;
12707;SDS011;6418;50.824;4.718;2023-04-19T02:49:33;31.23;;;23.13;;
12707;SDS011;6418;50.824;4.718;2023-04-19T02:52:02;34.77;;;24.73;;
12707;SDS011;6418;50.824;4.718;2023-04-19T02:54:29;31.80;;;23.00;;
12707;SDS011;6418;50.824;4.718;2023-04-19T02:56:57;30.37;;;23.50;;
12707;SDS011;6418;50.824;4.718;2023-04-19T02:59:24;32.03;;;23.13;;
12707;SDS011;6418;50.824;4.718;2023-04-19T03:01:50;33.30;;;23.20;;
12707;SDS011;6418;50.824;4.718;2023-04-19T03:04:17;29.93;;;22.50;;
12707;SDS011;6418;50.824;4.718;2023-04-19T03:06:46;30.77;;;22.97;;
12707;SDS011;6418;50.824;4.718;2023-04-19T03:09:13;29.97;;;23.10;;
12707;SDS011;6418;50.824;4.718;2023-04-19T03:11:39;29.47;;;21.87;;
12707;SDS011;6418;50.824;4.718;2023-04-19T03:14:07;30.20;;;22.47;;
12707;SDS011;6418;50.824;4.718;2023-04-19T03:16:33;29.70;;;22.50;;
12707;SDS011;6418;50.824;4.718;2023-04-19T03:19:01;27.43;;;20.83;;
12707;SDS011;6418;50.824;4.718;2023-04-19T03:21:28;28.63;;;21.87;;
12707;SDS011;6418;50.824;4.718;2023-04-19T03:23:57;29.43;;;21.43;;
12707;SDS011;6418;50.824;4.718;2023-04-19T03:26:24;29.57;;;22.60;;
12707;SDS011;6418;50.824;4.718;2023-04-19T03:28:51;29.20;;;21.37;;
12707;SDS011;6418;50.824;4.718;2023-04-19T03:31:18;30.83;;;22.80;;
12707;SDS011;6418;50.824;4.718;2023-04-19T03:33:45;30.23;;;21.73;;
12707;SDS011;6418;50.824;4.718;2023-04-19T03:36:12;31.57;;;22.83;;
12707;SDS011;6418;50.824;4.718;2023-04-19T03:38:39;31.67;;;22.47;;
12707;SDS011;6418;50.824;4.718;2023-04-19T03:41:17;30.10;;;22.27;;
12707;SDS011;6418;50.824;4.718;2023-04-19T03:43:45;29.97;;;21.93;;
12707;SDS011;6418;50.824;4.718;2023-04-19T03:46:11;30.40;;;22.27;;
12707;SDS011;6418;50.824;4.718;2023-04-19T03:48:38;30.23;;;21.70;;
12707;SDS011;6418;50.824;4.718;2023-04-19T03:51:05;33.40;;;23.07;;
12707;SDS011;6418;50.824;4.718;2023-04-19T03:53:32;32.10;;;22.23;;
12707;SDS011;6418;50.824;4.718;2023-04-19T03:55:59;32.07;;;23.13;;
12707;SDS011;6418;50.824;4.718;2023-04-19T03:58:27;32.43;;;23.57;;
12707;SDS011;6418;50.824;4.718;2023-04-19T04:00:54;32.23;;;23.47;;
12707;SDS011;6418;50.824;4.718;2023-04-19T04:03:21;31.93;;;23.50;;
12707;SDS011;6418;50.824;4.718;2023-04-19T04:05:48;31.27;;;22.83;;
12707;SDS011;6418;50.824;4.718;2023-04-19T04:08:15;31.20;;;22.53;;
12707;SDS011;6418;50.824;4.718;2023-04-19T04:10:42;31.87;;;23.77;;
12707;SDS011;6418;50.824;4.718;2023-04-19T04:13:08;32.53;;;23.90;;
12707;SDS011;6418;50.824;4.718;2023-04-19T04:15:37;32.80;;;23.47;;
12707;SDS011;6418;50.824;4.718;2023-04-19T04:18:04;32.30;;;23.60;;
12707;SDS011;6418;50.824;4.718;2023-04-19T04:20:31;34.83;;;24.27;;
12707;SDS011;6418;50.824;4.718;2023-04-19T04:22:57;33.63;;;23.53;;
12707;SDS011;6418;50.824;4.718;2023-04-19T04:25:24;32.37;;;23.93;;
12707;SDS011;6418;50.824;4.718;2023-04-19T04:27:52;32.10;;;23.27;;
12707;SDS011;6418;50.824;4.718;2023-04-19T04:30:20;34.73;;;24.63;;
12707;SDS011;6418;50.824;4.718;2023-04-19T04:32:48;33.93;;;23.70;;
12707;SDS011;6418;50.824;4.718;2023-04-19T04:35:16;32.83;;;23.87;;
12707;SDS011;6418;50.824;4.718;2023-04-19T04:37:43;34.63;;;24.30;;
12707;SDS011;6418;50.824;4.718;2023-04-19T04:40:10;34.23;;;24.73;;
12707;SDS011;6418;50.824;4.718;2023-04-19T04:42:37;36.00;;;25.10;;
12707;SDS011;6418;50.824;4.718;2023-04-19T04:45:05;33.07;;;24.07;;
12707;SDS011;6418;50.824;4.718;2023-04-19T04:47:34;34.47;;;24.60;;
12707;SDS011;6418;50.824;4.718;2023-04-19T04:50:03;36.07;;;24.73;;
12707;SDS011;6418;50.824;4.718;2023-04-19T04:52:31;38.50;;;26.53;;
12707;SDS011;6418;50.824;4.718;2023-04-19T04:54:58;37.40;;;26.57;;
12707;SDS011;6418;50.824;4.718;2023-04-19T04:57:25;37.97;;;24.80;;
12707;SDS011;6418;50.824;4.718;2023-04-19T04:59:52;36.50;;;26.23;;
12707;SDS011;6418;50.824;4.718;2023-04-19T05:02:20;37.90;;;26.47;;
12707;SDS011;6418;50.824;4.718;2023-04-19T05:04:48;37.83;;;26.37;;
12707;SDS011;6418;50.824;4.718;2023-04-19T05:07:16;37.97;;;26.07;;
12707;SDS011;6418;50.824;4.718;2023-04-19T05:09:43;36.57;;;25.40;;
12707;SDS011;6418;50.824;4.718;2023-04-19T05:12:09;40.53;;;27.50;;
12707;SDS011;6418;50.824;4.718;2023-04-19T05:14:36;37.83;;;26.70;;
12707;SDS011;6418;50.824;4.718;2023-04-19T05:17:03;37.23;;;26.03;;
12707;SDS011;6418;50.824;4.718;2023-04-19T05:19:30;40.77;;;27.37;;
12707;SDS011;6418;50.824;4.718;2023-04-19T05:21:57;38.50;;;27.97;;
12707;SDS011;6418;50.824;4.718;2023-04-19T05:24:25;39.37;;;27.13;;
12707;SDS011;6418;50.824;4.718;2023-04-19T05:26:52;43.60;;;28.13;;
12707;SDS011;6418;50.824;4.718;2023-04-19T05:29:19;38.23;;;27.03;;
12707;SDS011;6418;50.824;4.718;2023-04-19T05:31:46;41.33;;;27.50;;
12707;SDS011;6418;50.824;4.718;2023-04-19T05:34:13;42.63;;;27.47;;
12707;SDS011;6418;50.824;4.718;2023-04-19T05:36:40;41.70;;;28.03;;
12707;SDS011;6418;50.824;4.718;2023-04-19T05:39:06;40.27;;;27.67;;
12707;SDS011;6418;50.824;4.718;2023-04-19T05:41:35;41.47;;;27.90;;
12707;SDS011;6418;50.824;4.718;2023-04-19T05:44:02;38.07;;;27.80;;
12707;SDS011;6418;50.824;4.718;2023-04-19T05:46:29;41.77;;;28.30;;
12707;SDS011;6418;50.824;4.718;2023-04-19T05:48:56;37.80;;;26.37;;
12707;SDS011;6418;50.824;4.718;2023-04-19T05:51:22;40.97;;;27.80;;
12707;SDS011;6418;50.824;4.718;2023-04-19T05:53:49;42.33;;;28.27;;
12707;SDS011;6418;50.824;4.718;2023-04-19T05:56:17;37.73;;;27.90;;
12707;SDS011;6418;50.824;4.718;2023-04-19T05:58:45;39.97;;;27.00;;
12707;SDS011;6418;50.824;4.718;2023-04-19T06:01:12;38.73;;;26.13;;
12707;SDS011;6418;50.824;4.718;2023-04-19T06:03:40;38.53;;;27.10;;
12707;SDS011;6418;50.824;4.718;2023-04-19T06:06:07;38.57;;;25.80;;
12707;SDS011;6418;50.824;4.718;2023-04-19T06:08:34;38.47;;;27.33;;
12707;SDS011;6418;50.824;4.718;2023-04-19T06:11:00;36.73;;;25.67;;
12707;SDS011;6418;50.824;4.718;2023-04-19T06:13:27;37.37;;;26.00;;
12707;SDS011;6418;50.824;4.718;2023-04-19T06:15:56;35.17;;;25.63;;
12707;SDS011;6418;50.824;4.718;2023-04-19T06:18:23;35.47;;;26.13;;
12707;SDS011;6418;50.824;4.718;2023-04-19T06:20:50;34.13;;;24.83;;
12707;SDS011;6418;50.824;4.718;2023-04-19T06:23:18;37.27;;;25.43;;
12707;SDS011;6418;50.824;4.718;2023-04-19T06:25:45;33.57;;;24.47;;
12707;SDS011;6418;50.824;4.718;2023-04-19T06:28:12;35.13;;;23.63;;
12707;SDS011;6418;50.824;4.718;2023-04-19T06:30:39;33.27;;;24.50;;
12707;SDS011;6418;50.824;4.718;2023-04-19T06:33:07;35.37;;;23.87;;
12707;SDS011;6418;50.824;4.718;2023-04-19T06:35:35;33.23;;;23.90;;
12707;SDS011;6418;50.824;4.718;2023-04-19T06:38:02;32.43;;;23.50;;
12707;SDS011;6418;50.824;4.718;2023-04-19T06:40:29;30.07;;;22.87;;
12707;SDS011;6418;50.824;4.718;2023-04-19T06:42:56;33.50;;;22.93;;
12707;SDS011;6418;50.824;4.718;2023-04-19T06:45:23;32.80;;;22.73;;
12707;SDS011;6418;50.824;4.718;2023-04-19T06:47:50;30.17;;;22.10;;
12707;SDS011;6418;50.824;4.718;2023-04-19T06:50:18;31.07;;;22.17;;
12707;SDS011;6418;50.824;4.718;2023-04-19T06:52:45;36.00;;;23.47;;
12707;SDS011;6418;50.824;4.718;2023-04-19T06:55:12;30.80;;;22.07;;
12707;SDS011;6418;50.824;4.718;2023-04-19T06:57:39;31.17;;;21.73;;
12707;SDS011;6418;50.824;4.718;2023-04-19T07:00:07;35.80;;;22.30;;
12707;SDS011;6418;50.824;4.718;2023-04-19T07:02:35;32.80;;;21.90;;
12707;SDS011;6418;50.824;4.718;2023-04-19T07:05:02;30.30;;;21.67;;
12707;SDS011;6418;50.824;4.718;2023-04-19T07:07:31;31.80;;;21.33;;
12707;SDS011;6418;50.824;4.718;2023-04-19T07:09:57;31.67;;;21.47;;
12707;SDS011;6418;50.824;4.718;2023-04-19T07:12:24;30.90;;;22.03;;
12707;SDS011;6418;50.824;4.718;2023-04-19T07:14:51;29.43;;;21.80;;
12707;SDS011;6418;50.824;4.718;2023-04-19T07:17:21;31.97;;;22.20;;
12707;SDS011;6418;50.824;4.718;2023-04-19T07:19:48;28.57;;;20.90;;
12707;SDS011;6418;50.824;4.718;2023-04-19T07:22:15;32.17;;;21.37;;
12707;SDS011;6418;50.824;4.718;2023-04-19T07:24:43;32.97;;;21.07;;
12707;SDS011;6418;50.824;4.718;2023-04-19T07:27:10;30.03;;;21.43;;
12707;SDS011;6418;50.824;4.718;2023-04-19T07:29:38;31.30;;;22.10;;
12707;SDS011;6418;50.824;4.718;2023-04-19T07:32:05;30.80;;;21.97;;
12707;SDS011;6418;50.824;4.718;2023-04-19T07:34:32;28.07;;;20.63;;
12707;SDS011;6418;50.824;4.718;2023-04-19T07:36:59;28.37;;;19.50;;
12707;SDS011;6418;50.824;4.718;2023-04-19T07:39:26;29.27;;;20.93;;
12707;SDS011;6418;50.824;4.718;2023-04-19T07:41:56;29.57;;;20.13;;
12707;SDS011;6418;50.824;4.718;2023-04-19T07:44:23;27.33;;;19.23;;
12707;SDS011;6418;50.824;4.718;2023-04-19T07:46:50;28.07;;;19.20;;
12707;SDS011;6418;50.824;4.718;2023-04-19T07:49:16;27.53;;;20.00;;
12707;SDS011;6418;50.824;4.718;2023-04-19T07:51:43;28.83;;;19.70;;
12707;SDS011;6418;50.824;4.718;2023-04-19T07:54:10;27.90;;;18.20;;
12707;SDS011;6418;50.824;4.718;2023-04-19T07:56:37;26.23;;;18.67;;
12707;SDS011;6418;50.824;4.718;2023-04-19T07:59:05;28.97;;;19.47;;
12707;SDS011;6418;50.824;4.718;2023-04-19T08:01:32;29.63;;;19.83;;
12707;SDS011;6418;50.824;4.718;2023-04-19T08:03:59;25.33;;;17.97;;
12707;SDS011;6418;50.824;4.718;2023-04-19T08:06:26;26.13;;;18.90;;
12707;SDS011;6418;50.824;4.718;2023-04-19T08:08:54;27.47;;;17.90;;
12707;SDS011;6418;50.824;4.718;2023-04-19T08:11:21;26.13;;;18.10;;
12707;SDS011;6418;50.824;4.718;2023-04-19T08:13:49;24.83;;;17.43;;
12707;SDS011;6418;50.824;4.718;2023-04-19T08:16:17;25.43;;;17.70;;
12707;SDS011;6418;50.824;4.718;2023-04-19T08:18:44;28.30;;;17.77;;
12707;SDS011;6418;50.824;4.718;2023-04-19T08:21:12;23.20;;;17.07;;
12707;SDS011;6418;50.824;4.718;2023-04-19T08:23:39;26.53;;;18.33;;
12707;SDS011;6418;50.824;4.718;2023-04-19T08:26:06;24.03;;;16.33;;
12707;SDS011;6418;50.824;4.718;2023-04-19T08:28:33;23.37;;;16.67;;
12707;SDS011;6418;50.824;4.718;2023-04-19T08:31:00;23.30;;;16.80;;
12707;SDS011;6418;50.824;4.718;2023-04-19T08:33:32;24.63;;;17.17;;
12707;SDS011;6418;50.824;4.718;2023-04-19T08:35:59;26.50;;;17.73;;
12707;SDS011;6418;50.824;4.718;2023-04-19T08:38:26;25.27;;;17.23;;
12707;SDS011;6418;50.824;4.718;2023-04-19T08:40:53;28.80;;;17.70;;
12707;SDS011;6418;50.824;4.718;2023-04-19T08:43:20;24.43;;;17.33;;
12707;SDS011;6418;50.824;4.718;2023-04-19T08:45:49;25.13;;;17.03;;
12707;SDS011;6418;50.824;4.718;2023-04-19T08:48:17;26.33;;;16.90;;
12707;SDS011;6418;50.824;4.718;2023-04-19T08:50:46;23.77;;;16.93;;
12707;SDS011;6418;50.824;4.718;2023-04-19T08:53:14;26.07;;;16.97;;
12707;SDS011;6418;50.824;4.718;2023-04-19T08:55:41;24.67;;;17.23;;
12707;SDS011;6418;50.824;4.718;2023-04-19T08:58:08;23.73;;;16.33;;
12707;SDS011;6418;50.824;4.718;2023-04-19T09:00:37;23.07;;;15.63;;
12707;SDS011;6418;50.824;4.718;2023-04-19T09:03:05;24.77;;;16.50;;
12707;SDS011;6418;50.824;4.718;2023-04-19T09:05:33;22.33;;;16.67;;
12707;SDS011;6418;50.824;4.718;2023-04-19T09:10:53;21.83;;;15.20;;
12707;SDS011;6418;50.824;4.718;2023-04-19T09:13:21;25.97;;;16.13;;
12707;SDS011;6418;50.824;4.718;2023-04-19T09:15:48;24.30;;;16.10;;
12707;SDS011;6418;50.824;4.718;2023-04-19T09:18:17;20.73;;;14.93;;
12707;SDS011;6418;50.824;4.718;2023-04-19T09:20:45;23.03;;;16.00;;
12707;SDS011;6418;50.824;4.718;2023-04-19T09:23:13;22.77;;;14.80;;
12707;SDS011;6418;50.824;4.718;2023-04-19T09:25:50;22.37;;;14.13;;
12707;SDS011;6418;50.824;4.718;2023-04-19T09:28:18;21.03;;;13.57;;
12707;SDS011;6418;50.824;4.718;2023-04-19T09:30:45;21.97;;;14.30;;
12707;SDS011;6418;50.824;4.718;2023-04-19T09:33:12;22.03;;;14.47;;
12707;SDS011;6418;50.824;4.718;2023-04-19T09:35:40;19.73;;;14.23;;
12707;SDS011;6418;50.824;4.718;2023-04-19T09:38:08;20.10;;;14.73;;
12707;SDS011;6418;50.824;4.718;2023-04-19T09:40:36;21.40;;;14.30;;
12707;SDS011;6418;50.824;4.718;2023-04-19T09:43:05;22.37;;;14.60;;
12707;SDS011;6418;50.824;4.718;2023-04-19T09:45:39;21.50;;;13.27;;
12707;SDS011;6418;50.824;4.718;2023-04-19T09:48:07;23.13;;;13.67;;
12707;SDS011;6418;50.824;4.718;2023-04-19T09:50:35;20.17;;;13.07;;
12707;SDS011;6418;50.824;4.718;2023-04-19T09:53:15;19.30;;;12.67;;
12707;SDS011;6418;50.824;4.718;2023-04-19T09:55:43;18.67;;;12.23;;
12707;SDS011;6418;50.824;4.718;2023-04-19T09:58:12;18.17;;;12.50;;
12707;SDS011;6418;50.824;4.718;2023-04-19T10:00:40;17.57;;;11.70;;
12707;SDS011;6418;50.824;4.718;2023-04-19T10:03:08;16.50;;;11.00;;
12707;SDS011;6418;50.824;4.718;2023-04-19T10:05:35;20.23;;;11.77;;
12707;SDS011;6418;50.824;4.718;2023-04-19T10:08:05;17.97;;;10.03;;
12707;SDS011;6418;50.824;4.718;2023-04-19T10:10:33;15.87;;;10.43;;
12707;SDS011;6418;50.824;4.718;2023-04-19T10:13:03;17.30;;;11.00;;
12707;SDS011;6418;50.824;4.718;2023-04-19T10:15:34;22.87;;;11.33;;
12707;SDS011;6418;50.824;4.718;2023-04-19T10:18:03;25.83;;;11.37;;
12707;SDS011;6418;50.824;4.718;2023-04-19T10:20:31;19.00;;;11.37;;
12707;SDS011;6418;50.824;4.718;2023-04-19T10:23:05;18.00;;;11.77;;
12707;SDS011;6418;50.824;4.718;2023-04-19T10:25:35;15.87;;;10.67;;
12707;SDS011;6418;50.824;4.718;2023-04-19T10:28:03;17.20;;;10.73;;
12707;SDS011;6418;50.824;4.718;2023-04-19T10:30:30;16.30;;;11.00;;
12707;SDS011;6418;50.824;4.718;2023-04-19T10:32:58;17.63;;;10.73;;
12707;SDS011;6418;50.824;4.718;2023-04-19T10:35:33;16.33;;;11.30;;
12707;SDS011;6418;50.824;4.718;2023-04-19T10:38:02;17.20;;;11.10;;
12707;SDS011;6418;50.824;4.718;2023-04-19T10:43:24;18.57;;;10.47;;
12707;SDS011;6418;50.824;4.718;2023-04-19T10:45:52;18.23;;;11.03;;
12707;SDS011;6418;50.824;4.718;2023-04-19T10:51:19;20.17;;;10.33;;
12707;SDS011;6418;50.824;4.718;2023-04-19T10:53:48;16.27;;;10.17;;
12707;SDS011;6418;50.824;4.718;2023-04-19T10:56:21;16.87;;;10.63;;
12707;SDS011;6418;50.824;4.718;2023-04-19T10:59:11;18.87;;;11.40;;
12707;SDS011;6418;50.824;4.718;2023-04-19T11:01:46;18.93;;;11.03;;
12707;SDS011;6418;50.824;4.718;2023-04-19T11:04:16;15.20;;;10.10;;
12707;SDS011;6418;50.824;4.718;2023-04-19T11:06:58;17.27;;;10.50;;
12707;SDS011;6418;50.824;4.718;2023-04-19T11:09:27;20.13;;;11.03;;
12707;SDS011;6418;50.824;4.718;2023-04-19T11:12:00;15.93;;;10.43;;
12707;SDS011;6418;50.824;4.718;2023-04-19T11:14:32;16.87;;;10.57;;
12707;SDS011;6418;50.824;4.718;2023-04-19T11:17:01;18.83;;;11.17;;
12707;SDS011;6418;50.824;4.718;2023-04-19T11:19:31;17.20;;;11.50;;
12707;SDS011;6418;50.824;4.718;2023-04-19T11:21:58;17.07;;;11.07;;
12707;SDS011;6418;50.824;4.718;2023-04-19T11:24:25;18.67;;;11.17;;
12707;SDS011;6418;50.824;4.718;2023-04-19T11:26:52;18.67;;;11.00;;
12707;SDS011;6418;50.824;4.718;2023-04-19T11:29:22;17.43;;;11.10;;
12707;SDS011;6418;50.824;4.718;2023-04-19T11:31:49;15.40;;;10.83;;
12707;SDS011;6418;50.824;4.718;2023-04-19T11:34:16;20.00;;;11.40;;
12707;SDS011;6418;50.824;4.718;2023-04-19T11:36:48;17.97;;;11.60;;
12707;SDS011;6418;50.824;4.718;2023-04-19T11:39:16;20.07;;;11.47;;
12707;SDS011;6418;50.824;4.718;2023-04-19T11:41:43;17.40;;;11.23;;
12707;SDS011;6418;50.824;4.718;2023-04-19T11:44:14;18.10;;;11.30;;
12707;SDS011;6418;50.824;4.718;2023-04-19T11:46:55;20.07;;;12.13;;
12707;SDS011;6418;50.824;4.718;2023-04-19T11:49:24;20.50;;;12.40;;
12707;SDS011;6418;50.824;4.718;2023-04-19T11:51:55;17.57;;;11.53;;
12707;SDS011;6418;50.824;4.718;2023-04-19T11:54:23;17.07;;;11.40;;
12707;SDS011;6418;50.824;4.718;2023-04-19T11:57:01;17.13;;;10.90;;
12707;SDS011;6418;50.824;4.718;2023-04-19T11:59:29;17.27;;;10.60;;
12707;SDS011;6418;50.824;4.718;2023-04-19T12:02:07;19.23;;;11.67;;
12707;SDS011;6418;50.824;4.718;2023-04-19T12:04:35;18.10;;;10.30;;
12707;SDS011;6418;50.824;4.718;2023-04-19T12:07:03;18.23;;;11.33;;
12707;SDS011;6418;50.824;4.718;2023-04-19T12:09:32;20.27;;;10.67;;
12707;SDS011;6418;50.824;4.718;2023-04-19T12:12:00;19.73;;;10.80;;
12707;SDS011;6418;50.824;4.718;2023-04-19T12:14:27;14.63;;;9.20;;
12707;SDS011;6418;50.824;4.718;2023-04-19T12:17:06;19.43;;;9.37;;
12707;SDS011;6418;50.824;4.718;2023-04-19T12:19:41;15.70;;;9.73;;
12707;SDS011;6418;50.824;4.718;2023-04-19T12:22:12;14.53;;;9.07;;
12707;SDS011;6418;50.824;4.718;2023-04-19T12:24:39;14.10;;;7.70;;
12707;SDS011;6418;50.824;4.718;2023-04-19T12:27:07;16.33;;;7.70;;
12707;SDS011;6418;50.824;4.718;2023-04-19T12:29:35;16.57;;;8.30;;
12707;SDS011;6418;50.824;4.718;2023-04-19T12:32:03;15.97;;;8.40;;
12707;SDS011;6418;50.824;4.718;2023-04-19T12:34:31;16.60;;;8.27;;
12707;SDS011;6418;50.824;4.718;2023-04-19T12:36:58;16.13;;;8.33;;
12707;SDS011;6418;50.824;4.718;2023-04-19T12:39:26;19.00;;;7.27;;
12707;SDS011;6418;50.824;4.718;2023-04-19T12:41:53;16.53;;;7.63;;
12707;SDS011;6418;50.824;4.718;2023-04-19T12:44:21;14.97;;;7.53;;
12707;SDS011;6418;50.824;4.718;2023-04-19T12:46:48;13.57;;;7.00;;
12707;SDS011;6418;50.824;4.718;2023-04-19T12:49:16;13.83;;;6.50;;
12707;SDS011;6418;50.824;4.718;2023-04-19T12:51:44;11.90;;;7.23;;
12707;SDS011;6418;50.824;4.718;2023-04-19T12:54:12;20.50;;;7.30;;
12707;SDS011;6418;50.824;4.718;2023-04-19T12:56:41;12.93;;;6.70;;
12707;SDS011;6418;50.824;4.718;2023-04-19T12:59:09;13.67;;;6.60;;
12707;SDS011;6418;50.824;4.718;2023-04-19T13:01:36;14.80;;;6.57;;
12707;SDS011;6418;50.824;4.718;2023-04-19T13:04:03;36.67;;;6.77;;
12707;SDS011;6418;50.824;4.718;2023-04-19T13:06:31;10.73;;;5.90;;
12707;SDS011;6418;50.824;4.718;2023-04-19T13:08:58;15.37;;;5.80;;
12707;SDS011;6418;50.824;4.718;2023-04-19T13:11:25;10.07;;;5.47;;
12707;SDS011;6418;50.824;4.718;2023-04-19T13:13:53;11.37;;;5.40;;
12707;SDS011;6418;50.824;4.718;2023-04-19T13:16:20;13.87;;;5.90;;
12707;SDS011;6418;50.824;4.718;2023-04-19T13:18:47;11.57;;;5.60;;
12707;SDS011;6418;50.824;4.718;2023-04-19T13:21:15;11.83;;;6.00;;
12707;SDS011;6418;50.824;4.718;2023-04-19T13:23:42;11.53;;;5.50;;
12707;SDS011;6418;50.824;4.718;2023-04-19T13:26:09;11.10;;;5.30;;
12707;SDS011;6418;50.824;4.718;2023-04-19T13:28:37;8.53;;;5.07;;
12707;SDS011;6418;50.824;4.718;2023-04-19T13:31:05;12.60;;;5.40;;
12707;SDS011;6418;50.824;4.718;2023-04-19T13:33:32;11.93;;;5.70;;
12707;SDS011;6418;50.824;4.718;2023-04-19T13:36:00;10.50;;;5.30;;
12707;SDS011;6418;50.824;4.718;2023-04-19T13:38:27;13.47;;;5.57;;
12707;SDS011;6418;50.824;4.718;2023-04-19T13:40:54;12.23;;;5.07;;
12707;SDS011;6418;50.824;4.718;2023-04-19T13:43:21;8.80;;;5.07;;
12707;SDS011;6418;50.824;4.718;2023-04-19T13:45:48;8.33;;;4.60;;
12707;SDS011;6418;50.824;4.718;2023-04-19T13:48:16;6.27;;;4.50;;
12707;SDS011;6418;50.824;4.718;2023-04-19T13:50:43;9.53;;;5.03;;
12707;SDS011;6418;50.824;4.718;2023-04-19T13:53:10;12.23;;;4.70;;
12707;SDS011;6418;50.824;4.718;2023-04-19T13:55:37;10.93;;;4.60;;
12707;SDS011;6418;50.824;4.718;2023-04-19T13:58:04;8.37;;;4.60;;
12707;SDS011;6418;50.824;4.718;2023-04-19T14:00:31;8.23;;;4.40;;
12707;SDS011;6418;50.824;4.718;2023-04-19T14:02:57;10.33;;;4.63;;
12707;SDS011;6418;50.824;4.718;2023-04-19T14:05:26;10.53;;;4.60;;
12707;SDS011;6418;50.824;4.718;2023-04-19T14:07:53;10.53;;;4.43;;
12707;SDS011;6418;50.824;4.718;2023-04-19T14:10:20;9.20;;;4.53;;
12707;SDS011;6418;50.824;4.718;2023-04-19T14:12:47;8.43;;;4.63;;
12707;SDS011;6418;50.824;4.718;2023-04-19T14:15:16;10.67;;;4.70;;
12707;SDS011;6418;50.824;4.718;2023-04-19T14:17:43;11.73;;;4.90;;
12707;SDS011;6418;50.824;4.718;2023-04-19T14:20:10;10.07;;;4.80;;
12707;SDS011;6418;50.824;4.718;2023-04-19T14:22:39;8.87;;;4.40;;
12707;SDS011;6418;50.824;4.718;2023-04-19T14:25:06;8.70;;;4.70;;
12707;SDS011;6418;50.824;4.718;2023-04-19T14:27:33;13.63;;;4.70;;
12707;SDS011;6418;50.824;4.718;2023-04-19T14:30:00;10.10;;;4.30;;
12707;SDS011;6418;50.824;4.718;2023-04-19T14:32:27;11.33;;;4.67;;
12707;SDS011;6418;50.824;4.718;2023-04-19T14:34:54;9.03;;;4.63;;
12707;SDS011;6418;50.824;4.718;2023-04-19T14:37:21;16.70;;;4.57;;
12707;SDS011;6418;50.824;4.718;2023-04-19T14:39:50;8.40;;;4.20;;
12707;SDS011;6418;50.824;4.718;2023-04-19T14:42:18;10.87;;;5.07;;
12707;SDS011;6418;50.824;4.718;2023-04-19T14:47:16;11.00;;;4.40;;
12707;SDS011;6418;50.824;4.718;2023-04-19T14:49:43;11.47;;;4.70;;
12707;SDS011;6418;50.824;4.718;2023-04-19T14:52:10;12.93;;;4.80;;